Time;durP1;ratioP1;P1;durP2;ratioP2;P2;SDS_P1;SDS_P2;PMS_P1;PMS_P2;Temp;Humidity;BMP_temperature;BMP_pressure;BME280_temperature;BME280_humidity;BME280_pressure;Samples;Min_cycle;Max_cycle;Signal;HPM_P1;HPM_P2
2022/09/11 00:01:16;;;;;;;22.13;17.35;;;;;;;13.73;96.18;100146.77;1795557;79;25715;-77
2022/09/11 00:03:45;;;;;;;26.33;18.30;;;;;;;13.74;96.17;100146.25;1801693;79;27456;-77
2022/09/11 00:06:15;;;;;;;26.40;18.67;;;;;;;13.75;96.15;100141.98;1783253;79;25678;-76
2022/09/11 00:08:42;;;;;;;24.12;17.95;;;;;;;13.75;96.16;100143.33;1799740;79;25288;-76
2022/09/11 00:11:16;;;;;;;23.42;17.82;;;;;;;13.73;96.15;100141.38;1772461;79;26377;-76
2022/09/11 00:13:45;;;;;;;24.72;17.02;;;;;;;13.73;96.25;100141.38;1801954;79;26101;-76
2022/09/11 00:16:23;;;;;;;23.10;17.87;;;;;;;13.73;96.30;100140.03;1801103;79;28298;-76
2022/09/11 00:18:49;;;;;;;23.80;17.67;;;;;;;13.72;96.31;100137.56;1802634;79;26346;-76
2022/09/11 00:21:17;;;;;;;23.90;16.62;;;;;;;13.73;96.39;100132.47;1807491;79;25807;-77
2022/09/11 00:23:44;;;;;;;23.00;16.00;;;;;;;13.73;96.33;100129.27;1799525;79;26998;-77
2022/09/11 00:26:11;;;;;;;23.45;17.05;;;;;;;13.71;96.39;100127.83;1769379;79;25846;-77
2022/09/11 00:28:37;;;;;;;27.13;17.07;;;;;;;13.70;96.46;100128.89;1779051;79;27447;-77
2022/09/11 00:31:10;;;;;;;23.85;15.63;;;;;;;13.69;96.58;100125.37;1770223;79;25751;-77
2022/09/11 00:33:36;;;;;;;20.77;16.45;;;;;;;13.68;96.58;100131.81;1803277;79;25849;-76
2022/09/11 00:36:20;;;;;;;21.33;16.10;;;;;;;13.69;96.73;100128.06;1798038;79;26010;-78
2022/09/11 00:38:48;;;;;;;21.65;16.55;;;;;;;13.70;96.74;100127.55;1807422;79;25752;-77
2022/09/11 00:41:29;;;;;;;27.07;16.07;;;;;;;13.71;96.78;100120.59;1808417;79;27302;-78
2022/09/11 00:44:06;;;;;;;22.75;15.63;;;;;;;13.72;96.71;100122.77;1801832;79;26467;-78
2022/09/11 00:46:43;;;;;;;22.22;16.40;;;;;;;13.66;96.76;100120.44;1804197;79;25778;-77
2022/09/11 00:49:29;;;;;;;21.50;16.40;;;;;;;13.64;96.79;100117.66;1773754;79;25839;-75
2022/09/11 00:52:15;;;;;;;19.12;15.20;;;;;;;13.60;96.91;100115.91;1769670;79;25703;-78
2022/09/11 00:54:53;;;;;;;22.35;16.17;;;;;;;13.57;97.13;100115.52;1792749;79;27510;-77
2022/09/11 00:57:23;;;;;;;24.00;15.68;;;;;;;13.54;97.17;100112.74;1788485;79;25927;-77
2022/09/11 00:59:53;;;;;;;19.07;15.03;;;;;;;13.52;97.30;100100.55;1806214;79;25792;-77
2022/09/11 01:02:22;;;;;;;21.90;14.55;;;;;;;13.51;97.43;100100.25;1799499;79;25765;-76
2022/09/11 01:04:49;;;;;;;19.80;14.75;;;;;;;13.49;97.47;100100.48;1801143;79;25990;-76
2022/09/11 01:07:18;;;;;;;21.05;15.50;;;;;;;13.49;97.60;100099.14;1797964;79;28261;-77
2022/09/11 01:09:44;;;;;;;22.50;15.30;;;;;;;13.47;97.66;100089.62;1795861;79;25750;-77
2022/09/11 01:12:45;;;;;;;21.57;14.80;;;;;;;13.46;97.79;100097.38;1808131;79;25795;-76
2022/09/11 01:15:33;;;;;;;;;;;;;;;13.44;97.77;100094.08;1809593;79;25985;-76
2022/09/11 01:18:32;;;;;;;19.50;14.13;;;;;;;13.42;98.07;100092.13;1807573;78;25783;-78
2022/09/11 01:21:43;;;;;;;21.87;15.00;;;;;;;13.39;98.29;100098.77;1805171;79;27446;-77
2022/09/11 01:24:16;;;;;;;;;;;;;;;13.42;98.37;100096.17;1806179;79;26367;-78
2022/09/11 01:27:09;;;;;;;19.40;13.93;;;;;;;13.40;98.32;100090.19;1810081;79;25763;-76
2022/09/11 01:29:43;;;;;;;16.60;13.13;;;;;;;13.36;98.42;100086.28;1790903;79;26572;-77
2022/09/11 01:32:27;;;;;;;19.75;14.45;;;;;;;13.34;98.40;100083.82;1807845;79;26010;-76
2022/09/11 01:35:26;;;;;;;16.25;13.25;;;;;;;13.35;98.59;100088.66;1784874;78;27632;-78
2022/09/11 01:38:06;;;;;;;18.27;12.80;;;;;;;13.35;98.68;100084.62;1795724;79;25834;-77
2022/09/11 01:40:51;;;;;;;16.25;13.00;;;;;;;13.35;98.69;100085.97;1805901;78;25813;-76
2022/09/11 01:43:25;;;;;;;16.55;12.82;;;;;;;13.33;98.64;100083.50;1796466;79;26339;-77
2022/09/11 01:45:56;;;;;;;17.35;12.18;;;;;;;13.34;98.70;100076.27;1790513;78;25818;-77
2022/09/11 01:48:31;;;;;;;17.55;12.68;;;;;;;13.33;98.69;100079.47;1787051;79;28278;-77
2022/09/11 01:51:00;;;;;;;16.82;12.73;;;;;;;13.33;98.75;100080.81;1783843;79;26427;-76
2022/09/11 01:53:36;;;;;;;17.23;12.80;;;;;;;13.33;98.78;100074.08;1749487;81;25788;-76
2022/09/11 01:56:12;;;;;;;18.35;12.63;;;;;;;13.34;98.80;100069.53;1752485;81;26664;-76
2022/09/11 01:58:42;;;;;;;17.57;12.55;;;;;;;13.31;98.77;100066.75;1735551;81;25832;-76
2022/09/11 02:01:26;;;;;;;20.53;13.00;;;;;;;13.33;98.83;100069.22;1760058;81;28440;-78
2022/09/11 02:04:09;;;;;;;18.73;12.53;;;;;;;13.33;98.85;100071.91;1758592;80;25802;-77
2022/09/11 02:06:41;;;;;;;22.85;14.00;;;;;;;13.30;98.90;100065.64;1749921;81;25939;-77
2022/09/11 02:09:12;;;;;;;19.70;14.35;;;;;;;13.29;98.96;100067.50;1743697;81;26705;-77
2022/09/11 02:11:41;;;;;;;16.75;13.15;;;;;;;13.28;99.00;100067.72;1756227;81;25918;-77
2022/09/11 02:14:43;;;;;;;20.57;14.38;;;;;;;13.25;98.97;100068.97;1748769;81;27979;-78
2022/09/11 02:17:26;;;;;;;19.42;13.68;;;;;;;13.24;99.13;100068.66;1738628;80;26428;-77
2022/09/11 02:19:55;;;;;;;19.57;13.93;;;;;;;13.23;99.31;100068.37;1730276;81;25977;-77
2022/09/11 02:22:23;;;;;;;20.68;13.50;;;;;;;13.23;99.28;100070.23;1752856;81;26235;-76
2022/09/11 02:24:49;;;;;;;19.07;14.18;;;;;;;13.22;99.33;100065.88;1721087;81;25756;-77
2022/09/11 02:27:21;;;;;;;18.95;14.25;;;;;;;13.21;99.37;100069.62;1736753;80;27443;-76
2022/09/11 02:29:47;;;;;;;21.17;13.55;;;;;;;13.20;99.48;100066.61;1742821;81;26005;-77
2022/09/11 02:32:14;;;;;;;21.62;14.83;;;;;;;13.20;99.54;100068.78;1749161;81;25762;-77
2022/09/11 02:34:44;;;;;;;22.50;14.70;;;;;;;13.21;99.61;100062.38;1749549;81;26405;-77
2022/09/11 02:37:31;;;;;;;22.10;14.63;;;;;;;13.21;99.66;100063.73;1771335;80;26111;-77
2022/09/11 02:40:06;;;;;;;22.75;14.45;;;;;;;13.22;99.66;100065.36;1797019;78;27552;-78
2022/09/11 02:42:38;;;;;;;20.70;15.15;;;;;;;13.22;99.76;100059.98;1765856;79;25834;-77
2022/09/11 02:45:46;;;;;;;20.57;14.23;;;;;;;13.23;99.79;100062.16;1780840;78;25978;-77
2022/09/11 02:48:31;;;;;;;22.20;14.68;;;;;;;13.24;99.81;100065.97;1786143;79;25773;-77
2022/09/11 02:51:23;;;;;;;23.40;14.50;;;;;;;13.23;99.78;100060.81;1799923;78;25765;-76
2022/09/11 02:54:01;;;;;;;21.23;15.33;;;;;;;13.22;99.79;100056.45;1809641;78;28259;-77
2022/09/11 02:56:39;;;;;;;21.70;15.20;;;;;;;13.21;99.79;100058.86;1790408;79;25706;-76
2022/09/11 02:59:29;;;;;;;23.98;14.93;;;;;;;13.20;99.84;100054.50;1762078;79;25928;-77
2022/09/11 03:02:00;;;;;;;21.07;15.75;;;;;;;13.18;99.85;100064.14;1759210;80;26518;-78
2022/09/11 03:04:25;;;;;;;24.37;15.85;;;;;;;13.17;99.89;100061.69;1756557;79;26476;-76
2022/09/11 03:06:53;;;;;;;23.15;15.75;;;;;;;13.17;99.97;100056.30;1753037;79;27459;-78
2022/09/11 03:09:20;;;;;;;23.32;15.50;;;;;;;13.18;100.00;100056.59;1721337;82;25918;-77
2022/09/11 03:11:49;;;;;;;26.07;16.60;;;;;;;13.17;99.94;100050.41;1795136;79;26127;-77
2022/09/11 03:14:16;;;;;;;26.68;17.17;;;;;;;13.17;99.96;100054.45;1788555;79;26354;-77
2022/09/11 03:16:42;;;;;;;24.87;16.40;;;;;;;13.17;99.91;100052.27;1784921;79;25785;-77
2022/09/11 03:19:10;;;;;;;24.05;16.60;;;;;;;13.18;99.97;100057.94;1804312;79;28353;-77
2022/09/11 03:21:38;;;;;;;26.50;16.27;;;;;;;13.18;99.84;100057.94;1798713;79;26348;-75
2022/09/11 03:24:05;;;;;;;23.27;16.30;;;;;;;13.14;99.89;100053.01;1800481;78;25771;-77
2022/09/11 03:26:33;;;;;;;28.12;17.55;;;;;;;13.13;99.95;100054.03;1798253;79;26786;-77
2022/09/11 03:28:59;;;;;;;26.77;17.02;;;;;;;13.13;100.00;100050.00;1806608;79;25729;-77
2022/09/11 03:31:25;;;;;;;24.32;16.07;;;;;;;13.14;100.00;100046.28;1792063;79;27065;-77
2022/09/11 03:33:53;;;;;;;25.30;17.35;;;;;;;13.15;100.00;100050.61;1748288;79;25749;-76
2022/09/11 03:36:21;;;;;;;26.62;16.80;;;;;;;13.13;99.91;100048.66;1749138;79;25280;-76
2022/09/11 03:38:48;;;;;;;28.70;17.57;;;;;;;13.11;99.82;100044.53;1772461;79;25773;-77
2022/09/11 03:41:15;;;;;;;24.77;17.07;;;;;;;13.08;99.98;100041.78;1786523;78;25888;-76
2022/09/11 03:43:42;;;;;;;26.12;18.15;;;;;;;13.09;100.00;100039.89;1738969;79;27428;-76
2022/09/11 03:46:08;;;;;;;23.00;17.20;;;;;;;13.07;99.91;100046.01;1804507;79;25773;-76
2022/09/11 03:48:36;;;;;;;28.25;17.87;;;;;;;13.06;99.97;100053.78;1800328;79;26400;-77
2022/09/11 03:51:04;;;;;;;26.62;17.30;;;;;;;13.04;99.93;100049.11;1794903;79;26599;-78
2022/09/11 03:53:32;;;;;;;29.65;17.82;;;;;;;13.04;99.93;100052.63;1790781;79;25947;-77
2022/09/11 03:55:59;;;;;;;25.88;18.07;;;;;;;13.01;99.91;100051.70;1756033;79;28307;-78
2022/09/11 03:58:28;;;;;;;24.77;17.35;;;;;;;13.00;100.00;100050.05;1768048;79;25821;-77
2022/09/11 04:00:54;;;;;;;29.07;19.10;;;;;;;12.99;100.00;100044.89;1795249;78;26080;-78
2022/09/11 04:03:21;;;;;;;29.40;18.70;;;;;;;12.99;100.00;100051.09;1785155;79;26515;-78
2022/09/11 04:06:01;;;;;;;28.95;18.67;;;;;;;12.95;100.00;100041.82;1801636;79;25979;-77
2022/09/11 04:08:32;;;;;;;29.75;18.90;;;;;;;12.94;100.00;100044.70;1789663;79;29049;-77
2022/09/11 04:11:04;;;;;;;26.15;17.65;;;;;;;12.92;100.00;100046.78;1786663;79;25959;-77
2022/09/11 04:13:34;;;;;;;28.57;19.90;;;;;;;12.89;100.00;100049.41;1786266;79;25823;-78
2022/09/11 04:16:07;;;;;;;28.95;18.62;;;;;;;12.87;100.00;100042.59;1796991;79;25733;-78
2022/09/11 04:18:37;;;;;;;28.77;18.57;;;;;;;12.84;100.00;100045.70;1808304;79;25977;-77
2022/09/11 04:21:07;;;;;;;28.60;19.90;;;;;;;12.86;100.00;100047.65;1807896;79;27480;-78
2022/09/11 04:23:34;;;;;;;26.57;17.90;;;;;;;12.88;100.00;100040.19;1808813;79;26308;-77
2022/09/11 04:26:01;;;;;;;31.00;19.48;;;;;;;12.88;100.00;100043.71;1807365;78;25848;-78
2022/09/11 04:28:29;;;;;;;25.72;17.70;;;;;;;12.88;100.00;100036.16;1767967;79;26526;-77
2022/09/11 04:30:56;;;;;;;32.17;18.42;;;;;;;12.90;100.00;100036.25;1801678;79;26228;-77
2022/09/11 04:33:23;;;;;;;28.27;19.32;;;;;;;12.90;100.00;100040.80;1803978;79;27615;-76
2022/09/11 04:35:51;;;;;;;31.85;18.98;;;;;;;12.90;99.99;100045.66;1801908;79;26685;-77
2022/09/11 04:38:20;;;;;;;27.82;17.70;;;;;;;12.89;99.93;100038.66;1768688;79;25818;-77
2022/09/11 04:40:47;;;;;;;30.50;18.85;;;;;;;12.91;99.97;100037.09;1763680;79;26774;-77
2022/09/11 04:43:14;;;;;;;29.77;19.80;;;;;;;12.91;100.00;100033.88;1799465;78;26595;-77
2022/09/11 04:45:40;;;;;;;24.57;17.07;;;;;;;12.93;100.00;100034.49;1802943;79;27610;-78
2022/09/11 04:48:07;;;;;;;29.57;18.70;;;;;;;12.94;100.00;100034.78;1766087;80;25768;-77
2022/09/11 04:50:34;;;;;;;28.55;18.30;;;;;;;12.94;99.94;100040.16;1803403;79;25731;-77
2022/09/11 04:53:08;;;;;;;23.52;17.10;;;;;;;12.94;99.90;100032.09;1759713;79;25885;-79
2022/09/11 04:55:34;;;;;;;25.45;17.23;;;;;;;12.95;99.96;100029.72;1805433;79;26301;-76
2022/09/11 04:58:00;;;;;;;23.35;16.73;;;;;;;12.95;99.86;100028.89;1799950;79;28350;-77
2022/09/11 05:00:27;;;;;;;26.25;16.95;;;;;;;12.95;99.82;100025.69;1798903;79;26254;-77
2022/09/11 05:02:54;;;;;;;27.50;17.95;;;;;;;12.95;99.84;100025.69;1771815;79;25812;-77
2022/09/11 05:05:21;;;;;;;23.75;15.98;;;;;;;12.99;99.92;100020.70;1807655;79;25965;-77
2022/09/11 05:07:50;;;;;;;24.72;17.27;;;;;;;13.00;99.86;100016.98;1807594;79;25256;-77
2022/09/11 05:10:18;;;;;;;21.85;15.35;;;;;;;13.00;99.64;100019.67;1807401;79;27595;-76
2022/09/11 05:12:46;;;;;;;23.83;16.32;;;;;;;12.97;99.58;100022.78;1735984;82;25774;-76
2022/09/11 05:15:12;;;;;;;23.92;16.60;;;;;;;12.95;99.75;100024.34;1802554;79;25514;-76
2022/09/11 05:17:39;;;;;;;21.73;15.60;;;;;;;12.94;99.78;100022.69;1767744;80;25774;-77
2022/09/11 05:20:06;;;;;;;25.25;16.48;;;;;;;12.95;99.87;100024.86;1769237;79;25876;-77
2022/09/11 05:22:33;;;;;;;22.48;16.50;;;;;;;12.95;99.84;100022.17;1789567;79;27440;-75
2022/09/11 05:25:00;;;;;;;21.55;16.12;;;;;;;12.96;99.90;100025.15;1792157;79;25729;-77
2022/09/11 05:27:28;;;;;;;21.68;16.12;;;;;;;12.95;99.74;100014.94;1800031;79;26430;-76
2022/09/11 05:29:54;;;;;;;23.90;16.80;;;;;;;12.95;99.78;100014.94;1800852;79;26580;-76
2022/09/11 05:32:23;;;;;;;26.07;17.35;;;;;;;12.93;99.76;100021.05;1799997;79;26466;-77
2022/09/11 05:34:50;;;;;;;25.52;18.05;;;;;;;12.91;99.61;100023.13;1765490;79;28515;-77
2022/09/11 05:37:18;;;;;;;26.70;18.17;;;;;;;12.91;99.82;100026.33;1735752;82;25708;-77
2022/09/11 05:39:46;;;;;;;27.25;17.65;;;;;;;12.92;99.86;100026.63;1790771;79;26486;-77
2022/09/11 05:42:14;;;;;;;24.15;17.30;;;;;;;12.92;99.96;100026.63;1794604;79;25764;-76
2022/09/11 05:44:42;;;;;;;31.68;17.82;;;;;;;12.93;100.00;100033.15;1797058;79;26126;-76
2022/09/11 05:47:09;;;;;;;25.97;17.67;;;;;;;12.97;100.00;100034.88;1749491;80;26914;-78
2022/09/11 05:49:35;;;;;;;25.12;17.32;;;;;;;13.00;100.00;100031.77;1790359;79;25791;-76
2022/09/11 05:52:02;;;;;;;31.27;18.55;;;;;;;13.01;100.00;100036.09;1763017;79;25825;-76
2022/09/11 05:54:30;;;;;;;23.98;17.20;;;;;;;13.00;99.84;100030.42;1775723;79;25759;-77
2022/09/11 05:56:59;;;;;;;23.77;17.45;;;;;;;12.97;99.84;100033.53;1763673;79;26420;-77
2022/09/11 05:59:26;;;;;;;27.00;17.67;;;;;;;12.94;99.68;100029.41;1764519;79;27439;-76
2022/09/11 06:01:53;;;;;;;28.70;18.75;;;;;;;12.92;99.69;100032.83;1772441;80;25838;-76
2022/09/11 06:04:21;;;;;;;24.18;17.30;;;;;;;12.91;99.82;100031.71;1749508;81;25885;-77
2022/09/11 06:06:48;;;;;;;23.52;17.05;;;;;;;12.91;99.81;100030.36;1790018;78;25939;-77
2022/09/11 06:09:17;;;;;;;22.95;16.75;;;;;;;12.89;99.71;100037.31;1796497;79;26306;-76
2022/09/11 06:11:43;;;;;;;23.65;16.23;;;;;;;12.89;99.78;100037.83;1793010;79;27443;-77
2022/09/11 06:14:12;;;;;;;25.10;16.45;;;;;;;12.87;99.84;100039.36;1796696;79;25725;-78
2022/09/11 06:16:39;;;;;;;25.40;15.78;;;;;;;12.88;100.00;100041.53;1790961;79;25870;-77
2022/09/11 06:19:07;;;;;;;22.67;15.75;;;;;;;12.87;100.00;100033.19;1801642;78;25846;-75
2022/09/11 06:21:36;;;;;;;25.45;16.05;;;;;;;12.88;100.00;100036.16;1794805;78;25804;-75
2022/09/11 06:24:04;;;;;;;22.70;16.87;;;;;;;12.88;100.00;100041.53;1791513;78;26929;-76
2022/09/11 06:26:31;;;;;;;22.82;16.20;;;;;;;12.89;100.00;100037.83;1801855;79;25897;-76
2022/09/11 06:28:57;;;;;;;24.67;17.27;;;;;;;12.86;100.00;100037.73;1800571;79;25862;-77
2022/09/11 06:31:26;;;;;;;23.27;16.77;;;;;;;12.86;100.00;100042.27;1799887;79;26543;-76
2022/09/11 06:33:53;;;;;;;23.65;15.53;;;;;;;12.88;100.00;100035.64;1804711;79;25540;-76
2022/09/11 06:36:25;;;;;;;26.40;15.90;;;;;;;12.91;100.00;100033.88;1792741;79;28490;-76
2022/09/11 06:38:54;;;;;;;23.22;16.45;;;;;;;12.90;100.00;100032.22;1797095;79;25775;-77
2022/09/11 06:41:21;;;;;;;23.90;16.82;;;;;;;12.89;100.00;100034.63;1797198;79;25916;-77
2022/09/11 06:43:48;;;;;;;26.37;16.70;;;;;;;12.92;100.00;100033.34;1797427;79;25747;-76
2022/09/11 06:46:21;;;;;;;22.70;15.78;;;;;;;12.93;100.00;100025.08;1800391;79;26418;-79
2022/09/11 06:48:50;;;;;;;20.55;15.28;;;;;;;12.96;100.00;100028.67;1793352;79;27426;-77
2022/09/11 06:51:21;;;;;;;22.32;16.17;;;;;;;12.98;100.00;100032.50;1778345;79;26041;-77
2022/09/11 06:53:57;;;;;;;22.55;16.07;;;;;;;12.97;100.00;100026.30;1804692;79;25923;-77
2022/09/11 06:56:27;;;;;;;23.15;17.00;;;;;;;12.98;100.00;100033.30;1801627;79;26070;-76
2022/09/11 06:58:55;;;;;;;19.05;14.33;;;;;;;13.01;100.00;100030.71;1802756;79;26342;-78
2022/09/11 07:01:24;;;;;;;19.75;14.85;;;;;;;13.02;100.00;100035.86;1801181;79;28355;-77
2022/09/11 07:03:54;;;;;;;24.43;15.38;;;;;;;13.02;100.00;100027.80;1798709;79;25922;-76
2022/09/11 07:06:24;;;;;;;23.67;15.25;;;;;;;12.99;100.00;100033.63;1803809;79;25768;-79
2022/09/11 07:09:01;;;;;;;23.42;15.85;;;;;;;12.94;100.00;100037.47;1804145;79;25974;-78
2022/09/11 07:11:28;;;;;;;22.70;15.20;;;;;;;12.91;100.00;100037.92;1778648;79;26338;-77
2022/09/11 07:13:58;;;;;;;18.40;13.83;;;;;;;12.87;100.00;100043.94;1802196;77;26664;-77
2022/09/11 07:16:25;;;;;;;21.30;13.88;;;;;;;12.82;100.00;100037.02;1801277;78;25891;-77
2022/09/11 07:18:53;;;;;;;21.45;14.10;;;;;;;12.76;99.62;100040.06;1796937;79;25760;-77
2022/09/11 07:21:24;;;;;;;23.67;13.68;;;;;;;12.71;99.37;100035.84;1799290;79;25751;-77
2022/09/11 07:23:55;;;;;;;20.85;13.43;;;;;;;12.66;99.46;100035.64;1804738;78;25930;-76
2022/09/11 07:26:26;;;;;;;20.82;14.10;;;;;;;12.67;99.81;100027.91;1801074;79;28056;-78
2022/09/11 07:28:56;;;;;;;19.98;13.45;;;;;;;12.66;99.87;100030.81;1801673;79;25788;-77
2022/09/11 07:31:28;;;;;;;19.32;14.50;;;;;;;12.67;100.00;100033.28;1805886;78;25714;-77
2022/09/11 07:33:56;;;;;;;20.55;14.70;;;;;;;12.70;100.00;100032.03;1802200;79;26349;-76
2022/09/11 07:36:28;;;;;;;19.98;14.23;;;;;;;12.71;99.94;100030.47;1800178;79;25888;-78
2022/09/11 07:38:56;;;;;;;19.15;13.90;;;;;;;12.73;99.88;100036.96;1795708;79;27433;-78
2022/09/11 07:41:26;;;;;;;18.67;14.30;;;;;;;12.72;99.79;100031.30;1803390;79;25849;-78
2022/09/11 07:43:59;;;;;;;20.97;13.03;;;;;;;12.73;99.86;100031.58;1806939;79;25799;-78
2022/09/11 07:46:28;;;;;;;19.02;13.72;;;;;;;12.74;99.73;100027.36;1795974;79;26309;-77
2022/09/11 07:48:57;;;;;;;23.27;14.28;;;;;;;12.74;99.46;100036.77;1775832;80;25905;-76
2022/09/11 07:51:25;;;;;;;21.37;14.23;;;;;;;12.76;99.54;100037.89;1797384;78;27441;-76
2022/09/11 07:53:55;;;;;;;18.57;12.85;;;;;;;12.76;99.55;100036.55;1775185;79;25766;-76
2022/09/11 07:56:25;;;;;;;18.00;12.93;;;;;;;12.76;99.25;100037.37;1795934;79;25806;-77
2022/09/11 07:58:54;;;;;;;18.62;13.98;;;;;;;12.74;99.27;100035.94;1795949;79;26460;-76
2022/09/11 08:01:28;;;;;;;21.12;14.10;;;;;;;12.75;99.31;100039.74;1802416;79;25244;-77
2022/09/11 08:03:59;;;;;;;19.52;13.48;;;;;;;12.78;99.60;100038.50;1801670;79;27452;-76
2022/09/11 08:06:30;;;;;;;19.12;13.43;;;;;;;12.84;99.74;100036.29;1791328;79;25692;-77
2022/09/11 08:09:03;;;;;;;17.98;11.25;;;;;;;12.89;99.68;100037.83;1775492;80;25789;-77
2022/09/11 08:11:35;;;;;;;14.03;10.63;;;;;;;12.94;99.56;100035.30;1783778;79;26549;-77
2022/09/11 08:14:02;;;;;;;18.95;12.45;;;;;;;12.96;99.22;100037.24;1777055;80;26329;-77
2022/09/11 08:16:29;;;;;;;17.23;12.35;;;;;;;12.99;99.55;100036.31;1791272;78;27463;-77
2022/09/11 08:18:57;;;;;;;15.10;10.95;;;;;;;13.03;99.31;100040.73;1803298;78;25845;-77
2022/09/11 08:21:25;;;;;;;20.43;11.05;;;;;;;13.05;98.95;100038.16;1795627;79;25736;-77
2022/09/11 08:23:51;;;;;;;13.90;9.48;;;;;;;13.06;98.58;100037.66;1806939;79;25942;-77
2022/09/11 08:26:21;;;;;;;14.55;9.80;;;;;;;13.07;98.64;100038.77;1800711;79;25480;-76
2022/09/11 08:28:52;;;;;;;15.58;10.08;;;;;;;13.11;98.37;100036.46;1795438;79;27921;-77
2022/09/11 08:31:21;;;;;;;14.18;9.68;;;;;;;13.16;98.88;100040.68;1801587;79;25719;-77
2022/09/11 08:33:48;;;;;;;17.55;9.05;;;;;;;13.22;98.55;100041.66;1781801;79;25682;-77
2022/09/11 08:36:15;;;;;;;13.38;8.83;;;;;;;13.26;98.59;100032.16;1806345;79;25885;-76
2022/09/11 08:38:44;;;;;;;14.83;9.10;;;;;;;13.32;98.54;100040.69;1728520;80;25926;-77
2022/09/11 08:41:33;;;;;;;11.93;7.78;;;;;;;13.38;98.48;100047.37;1798411;79;28256;-77
2022/09/11 08:44:10;;;;;;;11.57;8.03;;;;;;;13.43;98.30;100042.13;1791648;79;26695;-78
2022/09/11 08:46:42;;;;;;;13.15;8.43;;;;;;;13.46;97.58;100048.95;1793689;79;26546;-78
2022/09/11 08:49:26;;;;;;;8.33;6.87;;;;;;;13.46;97.10;100046.27;1796472;79;26593;-77
2022/09/11 08:52:00;;;;;;;11.88;6.83;;;;;;;13.46;97.14;100050.30;1769345;79;26163;-77
2022/09/11 08:54:35;;;;;;;10.58;6.53;;;;;;;13.48;96.62;100057.11;1795793;79;27443;-77
2022/09/11 08:57:36;;;;;;;13.50;6.95;;;;;;;13.44;96.05;100055.08;1786794;79;25835;-77
2022/09/11 09:00:15;;;;;;;10.08;6.33;;;;;;;13.41;95.61;100054.98;1800839;79;25919;-77
2022/09/11 09:03:07;;;;;;;11.68;7.22;;;;;;;13.38;95.27;100046.53;1779312;79;26501;-78
2022/09/11 09:06:13;;;;;;;11.60;6.58;;;;;;;13.36;95.28;100052.14;1790692;79;25758;-77
2022/09/11 09:09:39;;;;;;;14.20;7.10;;;;;;;13.31;94.82;100058.69;1801068;79;28428;-78
2022/09/11 09:12:31;;;;;;;11.05;6.75;;;;;;;13.29;95.38;100062.11;1745610;80;25276;-78
2022/09/11 09:15:24;;;;;;;12.73;6.70;;;;;;;13.27;95.40;100061.51;1802805;79;25803;-77
2022/09/11 09:18:08;;;;;;;14.87;7.58;;;;;;;13.20;95.05;100062.06;1803578;78;25830;-77
2022/09/11 09:20:44;;;;;;;13.95;7.40;;;;;;;13.11;94.89;100064.19;1804323;79;25950;-77
2022/09/11 09:23:24;;;;;;;14.98;7.20;;;;;;;13.06;94.89;100062.69;1745132;80;27445;-77
2022/09/11 09:25:53;;;;;;;17.60;8.13;;;;;;;13.04;94.91;100063.39;1805333;78;25909;-77
2022/09/11 09:28:24;;;;;;;11.70;7.92;;;;;;;13.03;95.25;100064.41;1809847;78;25870;-77
2022/09/11 09:31:00;;;;;;;12.20;8.00;;;;;;;13.00;95.19;100069.41;1801491;79;26702;-76
2022/09/11 09:33:50;;;;;;;12.28;7.70;;;;;;;12.99;95.35;100068.58;1801585;79;25980;-77
2022/09/11 09:36:30;;;;;;;10.78;7.22;;;;;;;12.96;95.45;100070.34;1803909;79;27511;-77
2022/09/11 09:39:00;;;;;;;12.70;8.35;;;;;;;12.97;95.54;100075.20;1806870;79;26622;-78
2022/09/11 09:41:48;;;;;;;10.88;7.72;;;;;;;12.95;95.41;100076.77;1798019;79;25739;-77
2022/09/11 09:44:24;;;;;;;15.13;8.25;;;;;;;12.93;95.34;100070.78;1755970;79;25880;-78
2022/09/11 09:46:54;;;;;;;15.00;8.00;;;;;;;12.92;95.29;100074.50;1783389;78;25278;-78
2022/09/11 09:49:33;;;;;;;14.93;7.67;;;;;;;12.98;95.42;100073.63;1805072;79;27446;-78
2022/09/11 09:52:17;;;;;;;14.28;8.28;;;;;;;13.05;95.63;100066.39;1796977;79;26377;-78
2022/09/11 09:54:58;;;;;;;13.60;8.35;;;;;;;13.16;96.08;100070.27;1792336;79;25779;-78
2022/09/11 09:57:35;;;;;;;17.17;9.35;;;;;;;13.26;95.72;100067.91;1797873;79;26547;-78
2022/09/11 10:00:14;;;;;;;11.95;7.47;;;;;;;13.36;95.99;100065.59;1788147;79;25802;-78
2022/09/11 10:02:51;;;;;;;16.55;7.67;;;;;;;13.44;95.33;100063.98;1780148;79;27446;-78
2022/09/11 10:05:22;;;;;;;11.03;8.03;;;;;;;13.48;94.32;100060.31;1790053;78;25812;-77
2022/09/11 10:08:04;;;;;;;16.57;7.40;;;;;;;13.50;94.21;100065.79;1801374;78;25732;-77
2022/09/11 10:10:37;;;;;;;15.28;7.40;;;;;;;13.52;94.16;100068.25;1774482;80;26343;-78
2022/09/11 10:13:24;;;;;;;16.67;7.92;;;;;;;13.56;94.30;100067.60;1770363;80;25746;-77
2022/09/11 10:15:54;;;;;;;15.68;7.40;;;;;;;13.59;94.17;100065.00;1771530;80;28132;-78
2022/09/11 10:18:40;;;;;;;13.93;7.47;;;;;;;13.60;93.76;100066.66;1804935;78;25757;-78
2022/09/11 10:21:34;;;;;;;13.72;7.83;;;;;;;13.59;93.17;100069.03;1806928;79;26400;-77
2022/09/11 10:24:18;;;;;;;15.18;7.58;;;;;;;13.60;92.99;100068.80;1802140;79;25748;-77
2022/09/11 10:26:50;;;;;;;13.22;8.20;;;;;;;13.67;93.39;100067.41;1801998;79;25784;-75
2022/09/11 10:29:28;;;;;;;17.52;7.87;;;;;;;13.76;93.86;100072.83;1804563;79;27508;-77
2022/09/11 10:32:00;;;;;;;11.22;7.47;;;;;;;13.85;93.72;100068.31;1804862;78;26062;-77
2022/09/11 10:34:35;;;;;;;16.40;9.10;;;;;;;13.95;93.40;100067.79;1798492;79;25937;-76
2022/09/11 10:37:10;;;;;;;18.32;8.75;;;;;;;14.03;93.31;100059.97;1802527;79;25761;-76
2022/09/11 10:39:38;;;;;;;14.50;8.63;;;;;;;14.12;92.81;100063.48;1808310;78;25912;-76
2022/09/11 10:42:13;;;;;;;19.42;9.08;;;;;;;14.15;91.69;100064.91;1801851;79;27575;-77
2022/09/11 10:47:27;;;;;;;19.07;8.75;;;;;;;14.28;91.46;100066.12;1767052;78;25690;-76
2022/09/11 10:50:19;;;;;;;16.42;8.08;;;;;;;14.27;91.37;100068.50;1743436;81;32896;-77
2022/09/11 10:53:00;;;;;;;14.20;8.10;;;;;;;14.33;90.75;100066.29;1761243;79;27457;-78
2022/09/11 10:55:39;;;;;;;;;;;;;;;14.33;90.35;100059.04;1744688;79;26085;-76
2022/09/11 10:58:16;;;;;;;16.35;6.78;;;;;;;14.34;89.52;100055.31;1747248;80;25785;-77
2022/09/11 11:00:43;;;;;;;15.53;6.58;;;;;;;14.34;89.16;100045.88;1772260;79;25770;-77
2022/09/11 11:03:22;;;;;;;14.00;6.62;;;;;;;14.38;89.45;100042.20;1773300;80;25812;-78
2022/09/11 11:06:18;;;;;;;9.43;5.80;;;;;;;14.47;89.84;100042.21;1781065;79;27451;-77
2022/09/11 11:09:16;;;;;;;11.53;6.28;;;;;;;14.55;89.32;100040.55;1769515;79;25968;-77
2022/09/11 11:11:54;;;;;;;10.15;5.55;;;;;;;14.60;88.75;100038.84;1741530;81;25734;-77
2022/09/11 11:14:47;;;;;;;9.75;5.03;;;;;;;14.67;87.72;100051.69;1745228;81;25737;-77
2022/09/11 11:17:39;;;;;;;10.23;4.85;;;;;;;14.71;86.65;100052.59;1776681;79;25724;-77
2022/09/11 11:20:36;;;;;;;7.15;5.28;;;;;;;14.73;85.83;100051.33;1763342;79;27457;-77
2022/09/11 11:23:30;;;;;;;8.00;4.62;;;;;;;14.74;85.26;100048.08;1772535;79;25892;-76
2022/09/11 11:26:34;;;;;;;6.85;4.78;;;;;;;14.76;84.63;100048.67;1738886;79;25814;-79
2022/09/11 11:29:32;;;;;;;10.55;5.28;;;;;;;14.79;84.01;100049.06;1765776;79;25709;-77
2022/09/11 11:32:13;;;;;;;7.85;5.20;;;;;;;14.85;84.67;100055.41;1773570;79;25924;-77
2022/09/11 11:35:00;;;;;;;;;;;;;;;14.95;84.47;100044.92;1772800;79;27524;-77
2022/09/11 11:37:26;;;;;;;9.18;4.80;;;;;;;15.03;83.99;100032.46;1757501;79;25796;-76
2022/09/11 11:40:08;;;;;;;9.10;4.72;;;;;;;15.10;83.74;100032.65;1764834;80;25741;-75
2022/09/11 11:42:45;;;;;;;10.40;4.97;;;;;;;15.18;83.17;100036.36;1774975;79;26020;-78
2022/09/11 11:45:37;;;;;;;11.40;4.62;;;;;;;15.24;82.86;100029.23;1761506;79;25861;-76